Holder, Illinois
Current Conditions -  °F | °C
As of 7:56 PM on Saturday 20 Dec 2014 (Local Time) from KBMI Reporting Station
Overcast Overcast  
Wind Chill: 26°   Ceiling: 3400
Heat Index: 32°   Visibility: 8mi
Dew Point: 30°   Wind: 7mph
Humidity: 92%   Direction: 160°SSE
Pressure: 30.25"   Gusts: NA
Location:  40.3412°N, 88.8634°W
Report Text: KBMI 210156Z 16006KT 8SM OVC034 00/M01 A3025 RMK AO2 T00001011 OVC V BKN SLP263
Loading
Personal Weather Stations






























Interactive Weather Map New forecast layout! Learn more

10-Day Weather Forecast

Advertisements
Track Severe Weather on mobile